sensor_id;sensor_type;location;lat;lon;timestamp;P1;durP1;ratioP1;P2;durP2;ratioP2
2408;SDS011;8463;48.094;7.970;2023-04-28T00:01:24;2.37;;;1.90;;
2408;SDS011;8463;48.094;7.970;2023-04-28T00:03:50;2.83;;;2.30;;
2408;SDS011;8463;48.094;7.970;2023-04-28T00:06:17;2.53;;;2.17;;
2408;SDS011;8463;48.094;7.970;2023-04-28T00:08:42;2.80;;;2.03;;
2408;SDS011;8463;48.094;7.970;2023-04-28T00:11:09;2.43;;;2.03;;
2408;SDS011;8463;48.094;7.970;2023-04-28T00:13:35;2.43;;;2.10;;
2408;SDS011;8463;48.094;7.970;2023-04-28T00:16:02;2.43;;;1.97;;
2408;SDS011;8463;48.094;7.970;2023-04-28T00:18:28;2.63;;;2.23;;
2408;SDS011;8463;48.094;7.970;2023-04-28T00:20:54;3.20;;;2.60;;
2408;SDS011;8463;48.094;7.970;2023-04-28T00:23:23;2.83;;;2.50;;
2408;SDS011;8463;48.094;7.970;2023-04-28T00:25:57;3.03;;;2.17;;
2408;SDS011;8463;48.094;7.970;2023-04-28T00:28:22;2.77;;;2.30;;
2408;SDS011;8463;48.094;7.970;2023-04-28T00:30:48;2.50;;;2.07;;
2408;SDS011;8463;48.094;7.970;2023-04-28T00:33:14;3.23;;;2.37;;
2408;SDS011;8463;48.094;7.970;2023-04-28T00:35:40;2.70;;;2.17;;
2408;SDS011;8463;48.094;7.970;2023-04-28T00:38:10;3.00;;;2.60;;
2408;SDS011;8463;48.094;7.970;2023-04-28T00:40:37;2.47;;;2.20;;
2408;SDS011;8463;48.094;7.970;2023-04-28T00:43:03;2.77;;;2.00;;
2408;SDS011;8463;48.094;7.970;2023-04-28T00:45:30;3.10;;;2.30;;
2408;SDS011;8463;48.094;7.970;2023-04-28T00:47:56;5.40;;;2.67;;
2408;SDS011;8463;48.094;7.970;2023-04-28T00:50:24;3.43;;;2.20;;
2408;SDS011;8463;48.094;7.970;2023-04-28T00:52:50;1.93;;;1.60;;
2408;SDS011;8463;48.094;7.970;2023-04-28T00:55:16;2.20;;;2.00;;
2408;SDS011;8463;48.094;7.970;2023-04-28T00:57:43;2.57;;;2.37;;
2408;SDS011;8463;48.094;7.970;2023-04-28T01:00:09;2.60;;;2.40;;
2408;SDS011;8463;48.094;7.970;2023-04-28T01:02:35;2.13;;;2.03;;
2408;SDS011;8463;48.094;7.970;2023-04-28T01:05:01;4.10;;;1.90;;
2408;SDS011;8463;48.094;7.970;2023-04-28T01:07:27;2.00;;;1.90;;
2408;SDS011;8463;48.094;7.970;2023-04-28T01:09:53;4.60;;;2.50;;
2408;SDS011;8463;48.094;7.970;2023-04-28T01:12:20;2.20;;;2.00;;
2408;SDS011;8463;48.094;7.970;2023-04-28T01:14:46;2.73;;;2.20;;
2408;SDS011;8463;48.094;7.970;2023-04-28T01:17:12;2.20;;;2.00;;
2408;SDS011;8463;48.094;7.970;2023-04-28T01:19:38;2.47;;;2.27;;
2408;SDS011;8463;48.094;7.970;2023-04-28T01:22:03;2.33;;;2.00;;
2408;SDS011;8463;48.094;7.970;2023-04-28T01:24:31;3.87;;;2.40;;
2408;SDS011;8463;48.094;7.970;2023-04-28T01:26:57;3.83;;;2.60;;
2408;SDS011;8463;48.094;7.970;2023-04-28T01:29:23;3.33;;;2.17;;
2408;SDS011;8463;48.094;7.970;2023-04-28T01:31:48;2.33;;;2.00;;
2408;SDS011;8463;48.094;7.970;2023-04-28T01:34:14;2.63;;;1.90;;
2408;SDS011;8463;48.094;7.970;2023-04-28T01:36:40;2.30;;;2.10;;
2408;SDS011;8463;48.094;7.970;2023-04-28T01:39:05;3.13;;;2.37;;
2408;SDS011;8463;48.094;7.970;2023-04-28T01:41:34;2.93;;;2.20;;
2408;SDS011;8463;48.094;7.970;2023-04-28T01:44:00;1.90;;;1.70;;
2408;SDS011;8463;48.094;7.970;2023-04-28T01:46:34;3.60;;;2.47;;
2408;SDS011;8463;48.094;7.970;2023-04-28T01:49:00;2.47;;;2.27;;
2408;SDS011;8463;48.094;7.970;2023-04-28T01:51:26;2.80;;;2.13;;
2408;SDS011;8463;48.094;7.970;2023-04-28T01:54:07;2.83;;;2.10;;
2408;SDS011;8463;48.094;7.970;2023-04-28T01:56:32;3.50;;;2.10;;
2408;SDS011;8463;48.094;7.970;2023-04-28T01:58:58;2.50;;;1.93;;
2408;SDS011;8463;48.094;7.970;2023-04-28T02:01:24;2.00;;;1.80;;
2408;SDS011;8463;48.094;7.970;2023-04-28T02:03:49;2.87;;;2.40;;
2408;SDS011;8463;48.094;7.970;2023-04-28T02:06:15;4.33;;;2.80;;
2408;SDS011;8463;48.094;7.970;2023-04-28T02:08:46;3.53;;;2.80;;
2408;SDS011;8463;48.094;7.970;2023-04-28T02:11:14;3.63;;;1.97;;
2408;SDS011;8463;48.094;7.970;2023-04-28T02:13:40;2.73;;;2.10;;
2408;SDS011;8463;48.094;7.970;2023-04-28T02:16:07;3.50;;;2.50;;
2408;SDS011;8463;48.094;7.970;2023-04-28T02:18:35;3.40;;;3.10;;
2408;SDS011;8463;48.094;7.970;2023-04-28T02:21:07;3.83;;;2.40;;
2408;SDS011;8463;48.094;7.970;2023-04-28T02:23:37;3.97;;;2.50;;
2408;SDS011;8463;48.094;7.970;2023-04-28T02:26:03;4.13;;;2.83;;
2408;SDS011;8463;48.094;7.970;2023-04-28T02:28:29;3.20;;;2.20;;
2408;SDS011;8463;48.094;7.970;2023-04-28T02:31:10;2.60;;;2.40;;
2408;SDS011;8463;48.094;7.970;2023-04-28T02:33:37;3.33;;;2.37;;
2408;SDS011;8463;48.094;7.970;2023-04-28T02:36:04;3.90;;;2.73;;
2408;SDS011;8463;48.094;7.970;2023-04-28T02:38:30;3.43;;;2.53;;
2408;SDS011;8463;48.094;7.970;2023-04-28T02:40:56;2.20;;;2.10;;
2408;SDS011;8463;48.094;7.970;2023-04-28T02:43:23;2.40;;;2.20;;
2408;SDS011;8463;48.094;7.970;2023-04-28T02:45:49;4.23;;;2.10;;
2408;SDS011;8463;48.094;7.970;2023-04-28T02:48:20;3.43;;;2.70;;
2408;SDS011;8463;48.094;7.970;2023-04-28T02:50:46;2.60;;;2.40;;
2408;SDS011;8463;48.094;7.970;2023-04-28T02:53:12;2.77;;;2.57;;
2408;SDS011;8463;48.094;7.970;2023-04-28T02:55:37;3.90;;;2.60;;
2408;SDS011;8463;48.094;7.970;2023-04-28T02:58:03;3.30;;;2.97;;
2408;SDS011;8463;48.094;7.970;2023-04-28T03:00:29;3.83;;;2.40;;
2408;SDS011;8463;48.094;7.970;2023-04-28T03:02:55;4.37;;;2.40;;
2408;SDS011;8463;48.094;7.970;2023-04-28T03:05:20;1.93;;;1.83;;
2408;SDS011;8463;48.094;7.970;2023-04-28T03:07:46;2.93;;;2.20;;
2408;SDS011;8463;48.094;7.970;2023-04-28T03:10:16;6.23;;;2.93;;
2408;SDS011;8463;48.094;7.970;2023-04-28T03:12:41;2.90;;;2.57;;
2408;SDS011;8463;48.094;7.970;2023-04-28T03:15:07;2.37;;;2.13;;
2408;SDS011;8463;48.094;7.970;2023-04-28T03:17:33;2.83;;;2.50;;
2408;SDS011;8463;48.094;7.970;2023-04-28T03:20:02;2.77;;;2.30;;
2408;SDS011;8463;48.094;7.970;2023-04-28T03:22:35;2.50;;;2.30;;
2408;SDS011;8463;48.094;7.970;2023-04-28T03:25:01;3.20;;;2.70;;
2408;SDS011;8463;48.094;7.970;2023-04-28T03:27:27;2.97;;;2.67;;
2408;SDS011;8463;48.094;7.970;2023-04-28T03:29:52;2.50;;;2.30;;
2408;SDS011;8463;48.094;7.970;2023-04-28T03:32:18;2.10;;;1.90;;
2408;SDS011;8463;48.094;7.970;2023-04-28T03:34:44;3.20;;;2.90;;
2408;SDS011;8463;48.094;7.970;2023-04-28T03:37:16;3.63;;;2.90;;
2408;SDS011;8463;48.094;7.970;2023-04-28T03:39:42;4.00;;;2.50;;
2408;SDS011;8463;48.094;7.970;2023-04-28T03:42:14;2.70;;;2.33;;
2408;SDS011;8463;48.094;7.970;2023-04-28T03:44:42;3.30;;;2.87;;
2408;SDS011;8463;48.094;7.970;2023-04-28T03:47:08;2.70;;;2.50;;
2408;SDS011;8463;48.094;7.970;2023-04-28T03:49:35;3.30;;;3.00;;
2408;SDS011;8463;48.094;7.970;2023-04-28T03:52:00;2.40;;;2.20;;
2408;SDS011;8463;48.094;7.970;2023-04-28T03:54:28;3.20;;;2.90;;
2408;SDS011;8463;48.094;7.970;2023-04-28T03:56:57;2.93;;;2.63;;
2408;SDS011;8463;48.094;7.970;2023-04-28T03:59:23;2.73;;;2.53;;
2408;SDS011;8463;48.094;7.970;2023-04-28T04:01:49;4.50;;;3.00;;
2408;SDS011;8463;48.094;7.970;2023-04-28T04:04:14;3.00;;;2.63;;
2408;SDS011;8463;48.094;7.970;2023-04-28T04:06:40;2.57;;;2.13;;
2408;SDS011;8463;48.094;7.970;2023-04-28T04:09:11;2.50;;;2.30;;
2408;SDS011;8463;48.094;7.970;2023-04-28T04:11:39;3.07;;;2.80;;
2408;SDS011;8463;48.094;7.970;2023-04-28T04:14:04;3.30;;;2.40;;
2408;SDS011;8463;48.094;7.970;2023-04-28T04:16:30;3.50;;;2.57;;
2408;SDS011;8463;48.094;7.970;2023-04-28T04:18:56;2.30;;;2.10;;
2408;SDS011;8463;48.094;7.970;2023-04-28T04:21:21;3.70;;;2.73;;
2408;SDS011;8463;48.094;7.970;2023-04-28T04:23:47;4.10;;;2.53;;
2408;SDS011;8463;48.094;7.970;2023-04-28T04:26:12;4.27;;;3.17;;
2408;SDS011;8463;48.094;7.970;2023-04-28T04:28:39;3.00;;;2.70;;
2408;SDS011;8463;48.094;7.970;2023-04-28T04:31:07;3.53;;;2.57;;
2408;SDS011;8463;48.094;7.970;2023-04-28T04:33:33;3.83;;;3.00;;
2408;SDS011;8463;48.094;7.970;2023-04-28T04:35:58;3.00;;;2.47;;
2408;SDS011;8463;48.094;7.970;2023-04-28T04:38:24;3.33;;;3.03;;
2408;SDS011;8463;48.094;7.970;2023-04-28T04:40:50;3.80;;;3.03;;
2408;SDS011;8463;48.094;7.970;2023-04-28T04:43:16;3.13;;;2.53;;
2408;SDS011;8463;48.094;7.970;2023-04-28T04:45:42;2.80;;;2.60;;
2408;SDS011;8463;48.094;7.970;2023-04-28T04:48:08;5.00;;;3.37;;
2408;SDS011;8463;48.094;7.970;2023-04-28T04:50:33;3.20;;;2.80;;
2408;SDS011;8463;48.094;7.970;2023-04-28T04:52:59;3.10;;;2.80;;
2408;SDS011;8463;48.094;7.970;2023-04-28T04:55:27;3.27;;;2.97;;
2408;SDS011;8463;48.094;7.970;2023-04-28T04:57:53;4.00;;;3.30;;
2408;SDS011;8463;48.094;7.970;2023-04-28T05:00:19;4.63;;;3.40;;
2408;SDS011;8463;48.094;7.970;2023-04-28T05:02:45;4.37;;;3.90;;
2408;SDS011;8463;48.094;7.970;2023-04-28T05:05:11;5.47;;;3.67;;
2408;SDS011;8463;48.094;7.970;2023-04-28T05:07:36;3.60;;;3.30;;
2408;SDS011;8463;48.094;7.970;2023-04-28T05:10:02;3.53;;;3.13;;
2408;SDS011;8463;48.094;7.970;2023-04-28T05:12:33;5.07;;;3.10;;
2408;SDS011;8463;48.094;7.970;2023-04-28T05:14:59;3.50;;;3.20;;
2408;SDS011;8463;48.094;7.970;2023-04-28T05:17:25;3.20;;;2.90;;
2408;SDS011;8463;48.094;7.970;2023-04-28T05:19:54;3.30;;;3.00;;
2408;SDS011;8463;48.094;7.970;2023-04-28T05:22:19;3.90;;;3.60;;
2408;SDS011;8463;48.094;7.970;2023-04-28T05:24:48;4.63;;;4.23;;
2408;SDS011;8463;48.094;7.970;2023-04-28T05:27:14;3.63;;;3.20;;
2408;SDS011;8463;48.094;7.970;2023-04-28T05:29:43;4.50;;;3.67;;
2408;SDS011;8463;48.094;7.970;2023-04-28T05:32:11;4.17;;;3.67;;
2408;SDS011;8463;48.094;7.970;2023-04-28T05:34:37;4.70;;;4.23;;
2408;SDS011;8463;48.094;7.970;2023-04-28T05:37:02;4.80;;;4.40;;
2408;SDS011;8463;48.094;7.970;2023-04-28T05:39:28;7.03;;;4.17;;
2408;SDS011;8463;48.094;7.970;2023-04-28T05:41:56;5.90;;;5.30;;
2408;SDS011;8463;48.094;7.970;2023-04-28T05:44:25;4.73;;;4.20;;
2408;SDS011;8463;48.094;7.970;2023-04-28T05:46:52;4.00;;;3.63;;
2408;SDS011;8463;48.094;7.970;2023-04-28T05:49:18;4.60;;;3.40;;
2408;SDS011;8463;48.094;7.970;2023-04-28T05:51:47;3.87;;;3.43;;
2408;SDS011;8463;48.094;7.970;2023-04-28T05:54:12;4.03;;;3.67;;
2408;SDS011;8463;48.094;7.970;2023-04-28T05:56:38;6.03;;;3.67;;
2408;SDS011;8463;48.094;7.970;2023-04-28T05:59:03;3.50;;;3.20;;
2408;SDS011;8463;48.094;7.970;2023-04-28T06:01:30;3.10;;;2.80;;
2408;SDS011;8463;48.094;7.970;2023-04-28T06:03:56;3.47;;;2.60;;
2408;SDS011;8463;48.094;7.970;2023-04-28T06:06:22;3.60;;;2.70;;
2408;SDS011;8463;48.094;7.970;2023-04-28T06:08:51;3.73;;;3.43;;
2408;SDS011;8463;48.094;7.970;2023-04-28T06:11:21;3.57;;;3.27;;
2408;SDS011;8463;48.094;7.970;2023-04-28T06:13:49;3.30;;;3.00;;
2408;SDS011;8463;48.094;7.970;2023-04-28T06:16:15;2.60;;;2.40;;
2408;SDS011;8463;48.094;7.970;2023-04-28T06:18:48;3.67;;;3.37;;
2408;SDS011;8463;48.094;7.970;2023-04-28T06:21:14;3.70;;;2.67;;
2408;SDS011;8463;48.094;7.970;2023-04-28T06:23:41;5.93;;;2.10;;
2408;SDS011;8463;48.094;7.970;2023-04-28T06:26:13;2.70;;;2.37;;
2408;SDS011;8463;48.094;7.970;2023-04-28T06:28:39;3.93;;;2.90;;
2408;SDS011;8463;48.094;7.970;2023-04-28T06:31:05;4.10;;;2.60;;
2408;SDS011;8463;48.094;7.970;2023-04-28T06:33:33;2.97;;;2.30;;
2408;SDS011;8463;48.094;7.970;2023-04-28T06:35:59;3.00;;;2.70;;
2408;SDS011;8463;48.094;7.970;2023-04-28T06:38:25;4.37;;;2.63;;
2408;SDS011;8463;48.094;7.970;2023-04-28T06:40:51;2.90;;;2.70;;
2408;SDS011;8463;48.094;7.970;2023-04-28T06:43:16;2.10;;;1.97;;
2408;SDS011;8463;48.094;7.970;2023-04-28T06:45:48;3.20;;;2.70;;
2408;SDS011;8463;48.094;7.970;2023-04-28T06:48:14;3.23;;;2.77;;
2408;SDS011;8463;48.094;7.970;2023-04-28T06:50:39;4.10;;;3.33;;
2408;SDS011;8463;48.094;7.970;2023-04-28T06:53:05;3.40;;;3.10;;
2408;SDS011;8463;48.094;7.970;2023-04-28T06:55:35;2.80;;;2.60;;
2408;SDS011;8463;48.094;7.970;2023-04-28T06:58:01;3.40;;;2.87;;
2408;SDS011;8463;48.094;7.970;2023-04-28T07:00:27;3.37;;;2.97;;
2408;SDS011;8463;48.094;7.970;2023-04-28T07:02:52;4.27;;;3.40;;
2408;SDS011;8463;48.094;7.970;2023-04-28T07:05:18;3.57;;;2.90;;
2408;SDS011;8463;48.094;7.970;2023-04-28T07:07:50;3.73;;;3.43;;
2408;SDS011;8463;48.094;7.970;2023-04-28T07:10:16;3.00;;;2.77;;
2408;SDS011;8463;48.094;7.970;2023-04-28T07:12:49;3.33;;;3.03;;
2408;SDS011;8463;48.094;7.970;2023-04-28T07:15:16;3.23;;;2.93;;
2408;SDS011;8463;48.094;7.970;2023-04-28T07:17:42;3.80;;;2.93;;
2408;SDS011;8463;48.094;7.970;2023-04-28T07:20:11;3.53;;;3.23;;
2408;SDS011;8463;48.094;7.970;2023-04-28T07:22:38;3.73;;;3.30;;
2408;SDS011;8463;48.094;7.970;2023-04-28T07:25:04;3.83;;;3.43;;
2408;SDS011;8463;48.094;7.970;2023-04-28T07:27:30;3.03;;;2.83;;
2408;SDS011;8463;48.094;7.970;2023-04-28T07:29:59;3.63;;;3.23;;
2408;SDS011;8463;48.094;7.970;2023-04-28T07:32:25;4.63;;;3.00;;
2408;SDS011;8463;48.094;7.970;2023-04-28T07:34:50;2.90;;;2.57;;
2408;SDS011;8463;48.094;7.970;2023-04-28T07:37:17;2.90;;;2.70;;
2408;SDS011;8463;48.094;7.970;2023-04-28T07:39:46;2.30;;;2.10;;
2408;SDS011;8463;48.094;7.970;2023-04-28T07:42:11;2.43;;;2.23;;
2408;SDS011;8463;48.094;7.970;2023-04-28T07:44:37;3.50;;;3.13;;
2408;SDS011;8463;48.094;7.970;2023-04-28T08:07:05;4.10;;;2.70;;
2408;SDS011;8463;48.094;7.970;2023-04-28T08:09:32;3.30;;;3.00;;
2408;SDS011;8463;48.094;7.970;2023-04-28T08:11:59;3.30;;;2.23;;
2408;SDS011;8463;48.094;7.970;2023-04-28T08:14:25;2.70;;;2.50;;
2408;SDS011;8463;48.094;7.970;2023-04-28T08:16:54;2.23;;;1.97;;
2408;SDS011;8463;48.094;7.970;2023-04-28T08:19:21;2.60;;;2.20;;
2408;SDS011;8463;48.094;7.970;2023-04-28T08:21:47;2.57;;;2.10;;
2408;SDS011;8463;48.094;7.970;2023-04-28T08:24:16;1.80;;;1.70;;
2408;SDS011;8463;48.094;7.970;2023-04-28T08:26:41;4.10;;;3.10;;
2408;SDS011;8463;48.094;7.970;2023-04-28T08:29:07;3.33;;;2.80;;
2408;SDS011;8463;48.094;7.970;2023-04-28T08:31:33;3.60;;;2.67;;
2408;SDS011;8463;48.094;7.970;2023-04-28T08:33:58;2.83;;;2.10;;
2408;SDS011;8463;48.094;7.970;2023-04-28T08:36:24;4.10;;;3.67;;
2408;SDS011;8463;48.094;7.970;2023-04-28T08:38:57;3.83;;;3.10;;
2408;SDS011;8463;48.094;7.970;2023-04-28T08:41:29;3.13;;;2.67;;
2408;SDS011;8463;48.094;7.970;2023-04-28T08:43:57;3.43;;;2.67;;
2408;SDS011;8463;48.094;7.970;2023-04-28T08:46:22;5.33;;;3.20;;
2408;SDS011;8463;48.094;7.970;2023-04-28T08:48:54;2.93;;;2.67;;
2408;SDS011;8463;48.094;7.970;2023-04-28T08:51:34;3.40;;;3.10;;
2408;SDS011;8463;48.094;7.970;2023-04-28T08:54:08;3.57;;;2.87;;
2408;SDS011;8463;48.094;7.970;2023-04-28T08:56:42;4.60;;;3.77;;
2408;SDS011;8463;48.094;7.970;2023-04-28T08:59:09;4.00;;;3.67;;
2408;SDS011;8463;48.094;7.970;2023-04-28T09:01:42;2.93;;;2.30;;
2408;SDS011;8463;48.094;7.970;2023-04-28T09:04:08;3.70;;;3.37;;
2408;SDS011;8463;48.094;7.970;2023-04-28T09:06:35;2.67;;;2.47;;
2408;SDS011;8463;48.094;7.970;2023-04-28T09:11:52;2.97;;;2.60;;
2408;SDS011;8463;48.094;7.970;2023-04-28T09:14:23;3.13;;;2.83;;
2408;SDS011;8463;48.094;7.970;2023-04-28T09:16:53;5.73;;;2.77;;
2408;SDS011;8463;48.094;7.970;2023-04-28T09:19:19;2.53;;;2.33;;
2408;SDS011;8463;48.094;7.970;2023-04-28T09:21:46;3.20;;;2.63;;
2408;SDS011;8463;48.094;7.970;2023-04-28T09:24:33;3.20;;;2.90;;
2408;SDS011;8463;48.094;7.970;2023-04-28T09:27:02;3.43;;;2.63;;
2408;SDS011;8463;48.094;7.970;2023-04-28T09:29:34;3.63;;;2.70;;
2408;SDS011;8463;48.094;7.970;2023-04-28T09:32:15;3.17;;;2.77;;
2408;SDS011;8463;48.094;7.970;2023-04-28T09:34:52;3.90;;;3.30;;
2408;SDS011;8463;48.094;7.970;2023-04-28T09:37:23;2.60;;;2.27;;
2408;SDS011;8463;48.094;7.970;2023-04-28T09:39:51;3.63;;;2.83;;
2408;SDS011;8463;48.094;7.970;2023-04-28T09:45:11;2.60;;;1.83;;
2408;SDS011;8463;48.094;7.970;2023-04-28T09:47:46;2.70;;;1.63;;
2408;SDS011;8463;48.094;7.970;2023-04-28T09:50:15;1.63;;;1.53;;
2408;SDS011;8463;48.094;7.970;2023-04-28T09:53:00;2.27;;;2.07;;
2408;SDS011;8463;48.094;7.970;2023-04-28T09:55:29;1.67;;;1.57;;
2408;SDS011;8463;48.094;7.970;2023-04-28T09:57:57;1.87;;;1.60;;
2408;SDS011;8463;48.094;7.970;2023-04-28T10:00:32;1.87;;;1.77;;
2408;SDS011;8463;48.094;7.970;2023-04-28T10:02:58;2.40;;;2.23;;
2408;SDS011;8463;48.094;7.970;2023-04-28T10:05:25;2.40;;;2.20;;
2408;SDS011;8463;48.094;7.970;2023-04-28T10:07:50;2.77;;;2.03;;
2408;SDS011;8463;48.094;7.970;2023-04-28T10:10:19;2.60;;;2.40;;
2408;SDS011;8463;48.094;7.970;2023-04-28T10:12:45;3.60;;;3.30;;
2408;SDS011;8463;48.094;7.970;2023-04-28T10:15:11;2.73;;;2.53;;
2408;SDS011;8463;48.094;7.970;2023-04-28T10:17:37;2.30;;;2.10;;
2408;SDS011;8463;48.094;7.970;2023-04-28T10:20:03;2.57;;;2.37;;
2408;SDS011;8463;48.094;7.970;2023-04-28T10:25:15;6.80;;;2.63;;
2408;SDS011;8463;48.094;7.970;2023-04-28T10:27:51;2.77;;;2.57;;
2408;SDS011;8463;48.094;7.970;2023-04-28T10:30:21;3.07;;;2.63;;
2408;SDS011;8463;48.094;7.970;2023-04-28T10:33:21;3.13;;;1.90;;
2408;SDS011;8463;48.094;7.970;2023-04-28T10:35:43;2.43;;;2.23;;
2408;SDS011;8463;48.094;7.970;2023-04-28T10:38:10;2.67;;;2.47;;
2408;SDS011;8463;48.094;7.970;2023-04-28T10:43:52;2.50;;;2.30;;
2408;SDS011;8463;48.094;7.970;2023-04-28T10:46:03;3.70;;;2.57;;
2408;SDS011;8463;48.094;7.970;2023-04-28T10:51:47;2.43;;;2.23;;
2408;SDS011;8463;48.094;7.970;2023-04-28T10:54:19;3.00;;;2.70;;
2408;SDS011;8463;48.094;7.970;2023-04-28T10:57:13;2.60;;;2.40;;
2408;SDS011;8463;48.094;7.970;2023-04-28T10:59:43;3.10;;;1.90;;
2408;SDS011;8463;48.094;7.970;2023-04-28T11:05:12;3.20;;;1.67;;
2408;SDS011;8463;48.094;7.970;2023-04-28T11:07:38;2.30;;;2.10;;
2408;SDS011;8463;48.094;7.970;2023-04-28T11:10:04;2.63;;;1.90;;
2408;SDS011;8463;48.094;7.970;2023-04-28T11:12:31;2.80;;;2.40;;
2408;SDS011;8463;48.094;7.970;2023-04-28T11:14:56;3.80;;;2.70;;
2408;SDS011;8463;48.094;7.970;2023-04-28T11:17:40;2.57;;;2.37;;
2408;SDS011;8463;48.094;7.970;2023-04-28T11:20:11;4.03;;;2.70;;
2408;SDS011;8463;48.094;7.970;2023-04-28T11:22:38;3.30;;;1.90;;
2408;SDS011;8463;48.094;7.970;2023-04-28T11:25:07;2.90;;;2.03;;
2408;SDS011;8463;48.094;7.970;2023-04-28T11:27:35;2.43;;;2.20;;
2408;SDS011;8463;48.094;7.970;2023-04-28T11:30:01;3.40;;;2.20;;
2408;SDS011;8463;48.094;7.970;2023-04-28T11:32:32;2.73;;;2.30;;
2408;SDS011;8463;48.094;7.970;2023-04-28T11:35:04;2.07;;;1.97;;
2408;SDS011;8463;48.094;7.970;2023-04-28T11:37:33;2.03;;;1.93;;
2408;SDS011;8463;48.094;7.970;2023-04-28T11:40:09;3.03;;;1.90;;
2408;SDS011;8463;48.094;7.970;2023-04-28T11:42:45;1.77;;;1.40;;
2408;SDS011;8463;48.094;7.970;2023-04-28T11:45:12;1.57;;;1.30;;
2408;SDS011;8463;48.094;7.970;2023-04-28T11:47:41;1.50;;;1.40;;
2408;SDS011;8463;48.094;7.970;2023-04-28T11:50:07;2.30;;;1.50;;
2408;SDS011;8463;48.094;7.970;2023-04-28T11:52:33;1.20;;;1.10;;
2408;SDS011;8463;48.094;7.970;2023-04-28T11:54:59;1.80;;;1.50;;
2408;SDS011;8463;48.094;7.970;2023-04-28T11:57:26;2.30;;;1.50;;
2408;SDS011;8463;48.094;7.970;2023-04-28T12:00:15;2.17;;;1.40;;
2408;SDS011;8463;48.094;7.970;2023-04-28T12:02:46;1.70;;;1.20;;
2408;SDS011;8463;48.094;7.970;2023-04-28T12:05:11;1.20;;;1.10;;
2408;SDS011;8463;48.094;7.970;2023-04-28T12:07:41;1.63;;;0.97;;
2408;SDS011;8463;48.094;7.970;2023-04-28T12:10:14;1.47;;;1.10;;
2408;SDS011;8463;48.094;7.970;2023-04-28T12:12:42;2.70;;;1.80;;
2408;SDS011;8463;48.094;7.970;2023-04-28T12:15:11;0.77;;;0.77;;
2408;SDS011;8463;48.094;7.970;2023-04-28T12:17:37;1.60;;;0.80;;
2408;SDS011;8463;48.094;7.970;2023-04-28T12:22:47;1.30;;;0.93;;
2408;SDS011;8463;48.094;7.970;2023-04-28T12:25:17;1.00;;;0.90;;
2408;SDS011;8463;48.094;7.970;2023-04-28T12:30:32;0.87;;;0.80;;
2408;SDS011;8463;48.094;7.970;2023-04-28T12:32:59;1.50;;;1.20;;
2408;SDS011;8463;48.094;7.970;2023-04-28T12:35:27;1.00;;;0.90;;
2408;SDS011;8463;48.094;7.970;2023-04-28T12:37:55;1.10;;;0.80;;
2408;SDS011;8463;48.094;7.970;2023-04-28T12:40:22;1.87;;;1.03;;
2408;SDS011;8463;48.094;7.970;2023-04-28T12:42:50;1.53;;;1.10;;
2408;SDS011;8463;48.094;7.970;2023-04-28T12:45:16;0.97;;;0.90;;
2408;SDS011;8463;48.094;7.970;2023-04-28T12:47:42;0.70;;;0.60;;
2408;SDS011;8463;48.094;7.970;2023-04-28T12:50:08;1.27;;;0.90;;
2408;SDS011;8463;48.094;7.970;2023-04-28T12:52:34;1.30;;;0.73;;
2408;SDS011;8463;48.094;7.970;2023-04-28T12:55:01;0.57;;;0.57;;
2408;SDS011;8463;48.094;7.970;2023-04-28T12:57:27;1.00;;;0.77;;
2408;SDS011;8463;48.094;7.970;2023-04-28T12:59:54;1.00;;;0.90;;
2408;SDS011;8463;48.094;7.970;2023-04-28T13:02:21;1.93;;;0.90;;
2408;SDS011;8463;48.094;7.970;2023-04-28T13:04:46;1.27;;;1.00;;
2408;SDS011;8463;48.094;7.970;2023-04-28T13:07:13;2.40;;;1.10;;
2408;SDS011;8463;48.094;7.970;2023-04-28T13:09:42;1.47;;;1.17;;
2408;SDS011;8463;48.094;7.970;2023-04-28T13:12:13;1.00;;;0.87;;
2408;SDS011;8463;48.094;7.970;2023-04-28T13:14:39;1.77;;;1.67;;
2408;SDS011;8463;48.094;7.970;2023-04-28T13:17:08;1.60;;;1.10;;
2408;SDS011;8463;48.094;7.970;2023-04-28T13:19:34;0.80;;;0.80;;
2408;SDS011;8463;48.094;7.970;2023-04-28T13:22:00;1.33;;;1.10;;
2408;SDS011;8463;48.094;7.970;2023-04-28T13:24:31;1.33;;;1.23;;
2408;SDS011;8463;48.094;7.970;2023-04-28T13:26:57;5.40;;;2.73;;
2408;SDS011;8463;48.094;7.970;2023-04-28T13:29:26;3.30;;;1.60;;
2408;SDS011;8463;48.094;7.970;2023-04-28T13:31:52;1.43;;;1.30;;
2408;SDS011;8463;48.094;7.970;2023-04-28T13:34:18;1.53;;;1.20;;
2408;SDS011;8463;48.094;7.970;2023-04-28T13:36:44;1.10;;;1.00;;
2408;SDS011;8463;48.094;7.970;2023-04-28T13:39:13;3.23;;;1.00;;
2408;SDS011;8463;48.094;7.970;2023-04-28T13:41:39;1.50;;;1.00;;
2408;SDS011;8463;48.094;7.970;2023-04-28T13:44:05;1.43;;;1.00;;
2408;SDS011;8463;48.094;7.970;2023-04-28T13:46:30;1.37;;;1.27;;
2408;SDS011;8463;48.094;7.970;2023-04-28T13:48:57;2.93;;;1.73;;
2408;SDS011;8463;48.094;7.970;2023-04-28T13:51:22;1.77;;;1.10;;
2408;SDS011;8463;48.094;7.970;2023-04-28T13:53:49;1.50;;;1.40;;
2408;SDS011;8463;48.094;7.970;2023-04-28T13:56:15;1.53;;;1.40;;
2408;SDS011;8463;48.094;7.970;2023-04-28T13:58:43;1.50;;;1.20;;
2408;SDS011;8463;48.094;7.970;2023-04-28T14:01:10;1.10;;;1.00;;
2408;SDS011;8463;48.094;7.970;2023-04-28T14:03:38;1.70;;;1.27;;
2408;SDS011;8463;48.094;7.970;2023-04-28T14:06:05;1.20;;;1.10;;
2408;SDS011;8463;48.094;7.970;2023-04-28T14:08:31;1.97;;;1.23;;
2408;SDS011;8463;48.094;7.970;2023-04-28T14:10:57;1.37;;;1.27;;
2408;SDS011;8463;48.094;7.970;2023-04-28T14:13:24;1.53;;;1.43;;
2408;SDS011;8463;48.094;7.970;2023-04-28T14:32:40;1.33;;;1.23;;
2408;SDS011;8463;48.094;7.970;2023-04-28T14:35:06;2.30;;;1.90;;
2408;SDS011;8463;48.094;7.970;2023-04-28T14:37:39;2.03;;;1.30;;
2408;SDS011;8463;48.094;7.970;2023-04-28T14:40:05;1.57;;;1.20;;
2408;SDS011;8463;48.094;7.970;2023-04-28T14:42:32;1.33;;;0.93;;
2408;SDS011;8463;48.094;7.970;2023-04-28T14:45:04;1.50;;;1.40;;
2408;SDS011;8463;48.094;7.970;2023-04-28T14:47:33;1.23;;;1.13;;
2408;SDS011;8463;48.094;7.970;2023-04-28T14:50:03;1.50;;;1.40;;
2408;SDS011;8463;48.094;7.970;2023-04-28T14:52:31;1.47;;;1.30;;
2408;SDS011;8463;48.094;7.970;2023-04-28T14:54:58;1.27;;;1.10;;
2408;SDS011;8463;48.094;7.970;2023-04-28T14:57:24;1.30;;;1.20;;
2408;SDS011;8463;48.094;7.970;2023-04-28T14:59:51;0.80;;;0.80;;
2408;SDS011;8463;48.094;7.970;2023-04-28T15:02:17;3.70;;;1.27;;
2408;SDS011;8463;48.094;7.970;2023-04-28T15:04:48;1.47;;;0.70;;
2408;SDS011;8463;48.094;7.970;2023-04-28T15:07:21;1.33;;;1.03;;
2408;SDS011;8463;48.094;7.970;2023-04-28T15:09:48;2.37;;;1.40;;
2408;SDS011;8463;48.094;7.970;2023-04-28T15:12:15;3.30;;;1.10;;
2408;SDS011;8463;48.094;7.970;2023-04-28T15:14:42;1.53;;;0.90;;
2408;SDS011;8463;48.094;7.970;2023-04-28T15:17:08;1.57;;;0.70;;
2408;SDS011;8463;48.094;7.970;2023-04-28T15:19:36;0.70;;;0.70;;
2408;SDS011;8463;48.094;7.970;2023-04-28T15:22:02;2.80;;;1.13;;
2408;SDS011;8463;48.094;7.970;2023-04-28T15:24:31;1.10;;;1.00;;
2408;SDS011;8463;48.094;7.970;2023-04-28T15:26:59;3.73;;;1.13;;
2408;SDS011;8463;48.094;7.970;2023-04-28T15:29:30;0.80;;;0.80;;
2408;SDS011;8463;48.094;7.970;2023-04-28T15:31:56;1.67;;;0.83;;
2408;SDS011;8463;48.094;7.970;2023-04-28T15:34:22;0.80;;;0.70;;
2408;SDS011;8463;48.094;7.970;2023-04-28T15:36:49;0.90;;;0.90;;
2408;SDS011;8463;48.094;7.970;2023-04-28T15:39:19;1.93;;;0.83;;
2408;SDS011;8463;48.094;7.970;2023-04-28T15:41:52;1.20;;;0.90;;
2408;SDS011;8463;48.094;7.970;2023-04-28T15:44:17;1.17;;;1.07;;
2408;SDS011;8463;48.094;7.970;2023-04-28T15:46:43;1.57;;;1.10;;
2408;SDS011;8463;48.094;7.970;2023-04-28T15:49:09;1.50;;;0.93;;
2408;SDS011;8463;48.094;7.970;2023-04-28T15:51:37;0.97;;;0.93;;
2408;SDS011;8463;48.094;7.970;2023-04-28T15:54:03;1.00;;;1.00;;
2408;SDS011;8463;48.094;7.970;2023-04-28T15:56:32;0.93;;;0.77;;
2408;SDS011;8463;48.094;7.970;2023-04-28T15:58:58;1.10;;;1.00;;
2408;SDS011;8463;48.094;7.970;2023-04-28T16:01:30;1.10;;;0.83;;
2408;SDS011;8463;48.094;7.970;2023-04-28T16:03:56;1.23;;;0.90;;
2408;SDS011;8463;48.094;7.970;2023-04-28T16:06:22;1.00;;;0.70;;
2408;SDS011;8463;48.094;7.970;2023-04-28T16:08:50;3.50;;;1.10;;
2408;SDS011;8463;48.094;7.970;2023-04-28T16:11:22;0.70;;;0.70;;
2408;SDS011;8463;48.094;7.970;2023-04-28T16:13:50;1.20;;;1.10;;
2408;SDS011;8463;48.094;7.970;2023-04-28T16:16:16;1.30;;;0.90;;
2408;SDS011;8463;48.094;7.970;2023-04-28T16:18:41;1.37;;;1.20;;